sensor_id;sensor_type;location;lat;lon;timestamp;pressure;altitude;pressure_sealevel;temperature;humidity
57948;BME280;43754;56.992;24.292;2023-01-27T00:01:07;102065.78;;;1.16;100.00
57948;BME280;43754;56.992;24.292;2023-01-27T00:03:41;102076.19;;;1.19;100.00
57948;BME280;43754;56.992;24.292;2023-01-27T00:06:13;102085.88;;;1.18;100.00
57948;BME280;43754;56.992;24.292;2023-01-27T00:08:45;102089.19;;;1.22;100.00
57948;BME280;43754;56.992;24.292;2023-01-27T00:11:17;102091.59;;;1.26;100.00
57948;BME280;43754;56.992;24.292;2023-01-27T00:14:24;102091.84;;;1.06;100.00
57948;BME280;43754;56.992;24.292;2023-01-27T00:16:56;102078.72;;;1.05;100.00
57948;BME280;43754;56.992;24.292;2023-01-27T00:19:29;102107.03;;;1.03;100.00
57948;BME280;43754;56.992;24.292;2023-01-27T00:22:01;102094.75;;;1.02;100.00
57948;BME280;43754;56.992;24.292;2023-01-27T00:24:52;102098.50;;;0.98;100.00
57948;BME280;43754;56.992;24.292;2023-01-27T00:27:24;102103.53;;;0.86;100.00
57948;BME280;43754;56.992;24.292;2023-01-27T00:29:57;102104.63;;;0.82;100.00
57948;BME280;43754;56.992;24.292;2023-01-27T00:32:31;102104.28;;;0.73;100.00
57948;BME280;43754;56.992;24.292;2023-01-27T00:35:23;102094.41;;;0.76;100.00
57948;BME280;43754;56.992;24.292;2023-01-27T00:37:57;102103.09;;;0.78;100.00
57948;BME280;43754;56.992;24.292;2023-01-27T00:40:30;102112.56;;;0.67;100.00
57948;BME280;43754;56.992;24.292;2023-01-27T00:43:03;102108.28;;;0.64;100.00
57948;BME280;43754;56.992;24.292;2023-01-27T00:45:35;102111.84;;;0.63;100.00
57948;BME280;43754;56.992;24.292;2023-01-27T00:48:23;102117.97;;;0.64;100.00
57948;BME280;43754;56.992;24.292;2023-01-27T00:50:56;102106.13;;;0.55;100.00
57948;BME280;43754;56.992;24.292;2023-01-27T00:53:29;102112.34;;;0.54;100.00
57948;BME280;43754;56.992;24.292;2023-01-27T00:56:01;102126.47;;;0.53;100.00
57948;BME280;43754;56.992;24.292;2023-01-27T00:58:33;102123.84;;;0.53;100.00
57948;BME280;43754;56.992;24.292;2023-01-27T01:01:13;102136.34;;;0.50;100.00
57948;BME280;43754;56.992;24.292;2023-01-27T01:03:45;102139.06;;;0.48;100.00
57948;BME280;43754;56.992;24.292;2023-01-27T01:06:20;102140.41;;;0.55;100.00
57948;BME280;43754;56.992;24.292;2023-01-27T01:08:54;102141.09;;;0.59;100.00
57948;BME280;43754;56.992;24.292;2023-01-27T01:11:27;102141.63;;;0.50;100.00
57948;BME280;43754;56.992;24.292;2023-01-27T01:13:59;102146.88;;;0.50;100.00
57948;BME280;43754;56.992;24.292;2023-01-27T01:16:31;102149.91;;;0.42;100.00
57948;BME280;43754;56.992;24.292;2023-01-27T01:19:05;102154.19;;;0.44;100.00
57948;BME280;43754;56.992;24.292;2023-01-27T01:21:38;102146.34;;;0.43;100.00
57948;BME280;43754;56.992;24.292;2023-01-27T01:24:11;102146.34;;;0.43;100.00
57948;BME280;43754;56.992;24.292;2023-01-27T01:26:44;102151.34;;;0.32;100.00
57948;BME280;43754;56.992;24.292;2023-01-27T01:29:16;102148.97;;;0.43;100.00
57948;BME280;43754;56.992;24.292;2023-01-27T01:31:49;102156.13;;;0.41;100.00
57948;BME280;43754;56.992;24.292;2023-01-27T01:34:21;102150.66;;;0.28;100.00
57948;BME280;43754;56.992;24.292;2023-01-27T01:36:55;102150.78;;;0.25;100.00
57948;BME280;43754;56.992;24.292;2023-01-27T01:39:27;102142.19;;;0.22;100.00
57948;BME280;43754;56.992;24.292;2023-01-27T01:41:59;102145.13;;;0.33;100.00
57948;BME280;43754;56.992;24.292;2023-01-27T01:44:31;102149.38;;;0.35;100.00
57948;BME280;43754;56.992;24.292;2023-01-27T01:47:03;102153.06;;;0.33;100.00
57948;BME280;43754;56.992;24.292;2023-01-27T01:49:38;102153.41;;;0.25;100.00
57948;BME280;43754;56.992;24.292;2023-01-27T01:52:15;102149.69;;;0.29;100.00
57948;BME280;43754;56.992;24.292;2023-01-27T01:54:53;102162.19;;;0.26;100.00
57948;BME280;43754;56.992;24.292;2023-01-27T01:57:32;102162.81;;;0.31;100.00
57948;BME280;43754;56.992;24.292;2023-01-27T02:00:06;102165.63;;;0.28;100.00
57948;BME280;43754;56.992;24.292;2023-01-27T02:02:47;102170.28;;;0.23;100.00
57948;BME280;43754;56.992;24.292;2023-01-27T02:05:24;102172.59;;;0.29;100.00
57948;BME280;43754;56.992;24.292;2023-01-27T02:08:01;102170.28;;;0.23;100.00
57948;BME280;43754;56.992;24.292;2023-01-27T02:10:35;102174.44;;;0.27;100.00
57948;BME280;43754;56.992;24.292;2023-01-27T02:13:08;102176.69;;;0.34;100.00
57948;BME280;43754;56.992;24.292;2023-01-27T02:15:40;102184.25;;;0.25;100.00
57948;BME280;43754;56.992;24.292;2023-01-27T02:18:12;102183.78;;;0.17;100.00
57948;BME280;43754;56.992;24.292;2023-01-27T02:20:47;102187.09;;;0.20;100.00
57948;BME280;43754;56.992;24.292;2023-01-27T02:23:29;102195.88;;;0.21;100.00
57948;BME280;43754;56.992;24.292;2023-01-27T02:26:10;102194.69;;;0.26;100.00
57948;BME280;43754;56.992;24.292;2023-01-27T02:28:44;102186.16;;;0.21;100.00
57948;BME280;43754;56.992;24.292;2023-01-27T02:31:16;102192.22;;;0.23;100.00
57948;BME280;43754;56.992;24.292;2023-01-27T02:33:49;102198.34;;;0.24;100.00
57948;BME280;43754;56.992;24.292;2023-01-27T02:36:21;102200.44;;;0.17;100.00
57948;BME280;43754;56.992;24.292;2023-01-27T02:38:55;102211.31;;;0.11;100.00
57948;BME280;43754;56.992;24.292;2023-01-27T02:41:33;102206.88;;;0.12;100.00
57948;BME280;43754;56.992;24.292;2023-01-27T02:44:06;102211.38;;;0.10;100.00
57948;BME280;43754;56.992;24.292;2023-01-27T02:46:38;102213.38;;;0.05;100.00
57948;BME280;43754;56.992;24.292;2023-01-27T02:49:11;102218.41;;;0.09;100.00
57948;BME280;43754;56.992;24.292;2023-01-27T02:51:44;102230.59;;;0.12;100.00
57948;BME280;43754;56.992;24.292;2023-01-27T02:54:16;102232.47;;;0.10;100.00
57948;BME280;43754;56.992;24.292;2023-01-27T02:56:49;102222.06;;;0.07;100.00
57948;BME280;43754;56.992;24.292;2023-01-27T02:59:22;102221.38;;;0.03;100.00
57948;BME280;43754;56.992;24.292;2023-01-27T03:01:54;102222.84;;;0.09;100.00
57948;BME280;43754;56.992;24.292;2023-01-27T03:04:26;102230.84;;;0.07;100.00
57948;BME280;43754;56.992;24.292;2023-01-27T03:06:58;102226.94;;;0.14;100.00
57948;BME280;43754;56.992;24.292;2023-01-27T03:09:31;102219.44;;;0.24;100.00
57948;BME280;43754;56.992;24.292;2023-01-27T03:12:06;102212.91;;;0.31;100.00
57948;BME280;43754;56.992;24.292;2023-01-27T03:14:54;102225.47;;;0.26;100.00
57948;BME280;43754;56.992;24.292;2023-01-27T03:17:45;102227.13;;;0.28;100.00
57948;BME280;43754;56.992;24.292;2023-01-27T03:20:37;102226.28;;;0.28;100.00
57948;BME280;43754;56.992;24.292;2023-01-27T03:23:10;102216.47;;;0.30;100.00
57948;BME280;43754;56.992;24.292;2023-01-27T03:25:44;102222.53;;;0.32;100.00
57948;BME280;43754;56.992;24.292;2023-01-27T03:28:18;102219.44;;;0.24;100.00
57948;BME280;43754;56.992;24.292;2023-01-27T03:31:10;102230.47;;;0.32;100.00
57948;BME280;43754;56.992;24.292;2023-01-27T03:34:05;102224.84;;;0.38;100.00
57948;BME280;43754;56.992;24.292;2023-01-27T03:36:52;102222.53;;;0.32;100.00
57948;BME280;43754;56.992;24.292;2023-01-27T03:39:43;102222.63;;;0.30;100.00
57948;BME280;43754;56.992;24.292;2023-01-27T03:42:33;102221.00;;;0.28;100.00
57948;BME280;43754;56.992;24.292;2023-01-27T03:45:25;102226.91;;;0.33;100.00
57948;BME280;43754;56.992;24.292;2023-01-27T03:48:15;102235.09;;;0.27;100.00
57948;BME280;43754;56.992;24.292;2023-01-27T03:50:51;102221.75;;;0.30;100.00
57948;BME280;43754;56.992;24.292;2023-01-27T03:53:26;102244.56;;;0.31;100.00
57948;BME280;43754;56.992;24.292;2023-01-27T03:55:58;102240.78;;;0.36;100.00
57948;BME280;43754;56.992;24.292;2023-01-27T03:58:32;102243.09;;;0.42;100.00
57948;BME280;43754;56.992;24.292;2023-01-27T04:01:11;102248.91;;;0.49;100.00
57948;BME280;43754;56.992;24.292;2023-01-27T04:03:44;102248.00;;;0.50;100.00
57948;BME280;43754;56.992;24.292;2023-01-27T04:06:37;102253.97;;;0.54;100.00
57948;BME280;43754;56.992;24.292;2023-01-27T04:09:30;102251.56;;;0.49;100.00
57948;BME280;43754;56.992;24.292;2023-01-27T04:12:04;102261.47;;;0.44;100.00
57948;BME280;43754;56.992;24.292;2023-01-27T04:14:38;102253.56;;;0.44;100.00
57948;BME280;43754;56.992;24.292;2023-01-27T04:17:16;102271.34;;;0.40;100.00
57948;BME280;43754;56.992;24.292;2023-01-27T04:19:48;102261.94;;;0.35;100.00
57948;BME280;43754;56.992;24.292;2023-01-27T04:22:20;102275.06;;;0.36;100.00
57948;BME280;43754;56.992;24.292;2023-01-27T04:24:52;102262.97;;;0.32;100.00
57948;BME280;43754;56.992;24.292;2023-01-27T04:27:24;102267.91;;;0.21;100.00
57948;BME280;43754;56.992;24.292;2023-01-27T04:29:57;102276.66;;;0.22;100.00
57948;BME280;43754;56.992;24.292;2023-01-27T04:32:30;102280.25;;;0.21;100.00
57948;BME280;43754;56.992;24.292;2023-01-27T04:35:02;102273.09;;;0.23;100.00
57948;BME280;43754;56.992;24.292;2023-01-27T04:37:34;102276.53;;;0.25;100.00
57948;BME280;43754;56.992;24.292;2023-01-27T04:40:07;102281.81;;;0.25;100.00
57948;BME280;43754;56.992;24.292;2023-01-27T04:42:40;102284.28;;;0.28;100.00
57948;BME280;43754;56.992;24.292;2023-01-27T04:45:12;102281.31;;;0.34;100.00
57948;BME280;43754;56.992;24.292;2023-01-27T04:47:46;102280.41;;;0.35;100.00
57948;BME280;43754;56.992;24.292;2023-01-27T04:50:18;102274.66;;;0.27;100.00
57948;BME280;43754;56.992;24.292;2023-01-27T04:52:50;102282.63;;;0.25;100.00
57948;BME280;43754;56.992;24.292;2023-01-27T04:55:22;102280.50;;;0.33;100.00
57948;BME280;43754;56.992;24.292;2023-01-27T04:57:54;102285.69;;;0.35;100.00
57948;BME280;43754;56.992;24.292;2023-01-27T05:00:26;102276.84;;;0.36;100.00
57948;BME280;43754;56.992;24.292;2023-01-27T05:02:59;102281.19;;;0.37;100.00
57948;BME280;43754;56.992;24.292;2023-01-27T05:05:32;102282.81;;;0.39;100.00
57948;BME280;43754;56.992;24.292;2023-01-27T05:08:05;102281.19;;;0.37;100.00
57948;BME280;43754;56.992;24.292;2023-01-27T05:10:37;102278.31;;;0.41;100.00
57948;BME280;43754;56.992;24.292;2023-01-27T05:13:10;102280.25;;;0.38;100.00
57948;BME280;43754;56.992;24.292;2023-01-27T05:15:42;102277.69;;;0.36;100.00
57948;BME280;43754;56.992;24.292;2023-01-27T05:18:15;102280.09;;;0.41;100.00
57948;BME280;43754;56.992;24.292;2023-01-27T05:20:47;102283.34;;;0.46;100.00
57948;BME280;43754;56.992;24.292;2023-01-27T05:23:22;102283.84;;;0.54;100.00
57948;BME280;43754;56.992;24.292;2023-01-27T05:26:11;102282.88;;;0.55;100.00
57948;BME280;43754;56.992;24.292;2023-01-27T05:28:44;102284.91;;;0.50;100.00
57948;BME280;43754;56.992;24.292;2023-01-27T05:31:18;102285.69;;;0.52;100.00
57948;BME280;43754;56.992;24.292;2023-01-27T05:33:53;102291.81;;;0.53;100.00
57948;BME280;43754;56.992;24.292;2023-01-27T05:36:27;102288.94;;;0.57;100.00
57948;BME280;43754;56.992;24.292;2023-01-27T05:38:59;102294.84;;;0.62;100.00
57948;BME280;43754;56.992;24.292;2023-01-27T05:41:31;102295.59;;;0.64;100.00
57948;BME280;43754;56.992;24.292;2023-01-27T05:44:03;102292.50;;;0.56;100.00
57948;BME280;43754;56.992;24.292;2023-01-27T05:46:37;102288.38;;;0.51;100.00
57948;BME280;43754;56.992;24.292;2023-01-27T05:49:10;102305.00;;;0.53;100.00
57948;BME280;43754;56.992;24.292;2023-01-27T05:51:42;102302.91;;;0.59;100.00
57948;BME280;43754;56.992;24.292;2023-01-27T05:54:14;102307.88;;;0.65;100.00
57948;BME280;43754;56.992;24.292;2023-01-27T05:56:46;102305.53;;;0.59;100.00
57948;BME280;43754;56.992;24.292;2023-01-27T05:59:18;102303.06;;;0.56;100.00
57948;BME280;43754;56.992;24.292;2023-01-27T06:01:51;102311.66;;;0.60;100.00
57948;BME280;43754;56.992;24.292;2023-01-27T06:04:24;102324.34;;;0.53;100.00
57948;BME280;43754;56.992;24.292;2023-01-27T06:06:57;102326.97;;;0.53;100.00
57948;BME280;43754;56.992;24.292;2023-01-27T06:09:29;102328.97;;;0.48;100.00
57948;BME280;43754;56.992;24.292;2023-01-27T06:12:01;102329.78;;;0.50;100.00
57948;BME280;43754;56.992;24.292;2023-01-27T06:14:33;102335.19;;;0.47;100.00
57948;BME280;43754;56.992;24.292;2023-01-27T06:17:05;102339.13;;;0.56;100.00
57948;BME280;43754;56.992;24.292;2023-01-27T06:19:39;102342.69;;;0.55;100.00
57948;BME280;43754;56.992;24.292;2023-01-27T06:22:11;102339.25;;;0.54;100.00
57948;BME280;43754;56.992;24.292;2023-01-27T06:24:43;102343.50;;;0.57;100.00
57948;BME280;43754;56.992;24.292;2023-01-27T06:27:15;102347.44;;;0.48;100.00
57948;BME280;43754;56.992;24.292;2023-01-27T06:29:47;102356.16;;;0.50;100.00
57948;BME280;43754;56.992;24.292;2023-01-27T06:32:19;102366.13;;;0.43;100.00
57948;BME280;43754;56.992;24.292;2023-01-27T06:34:52;102373.03;;;0.46;100.00
57948;BME280;43754;56.992;24.292;2023-01-27T06:37:27;102373.13;;;0.44;100.00
57948;BME280;43754;56.992;24.292;2023-01-27T06:39:59;102377.69;;;0.41;100.00
57948;BME280;43754;56.992;24.292;2023-01-27T06:42:31;102375.91;;;0.41;100.00
57948;BME280;43754;56.992;24.292;2023-01-27T06:45:04;102374.75;;;0.47;100.00
57948;BME280;43754;56.992;24.292;2023-01-27T06:47:37;102376.63;;;0.45;100.00
57948;BME280;43754;56.992;24.292;2023-01-27T06:50:11;102378.94;;;0.51;100.00
57948;BME280;43754;56.992;24.292;2023-01-27T06:52:43;102373.19;;;0.43;100.00
57948;BME280;43754;56.992;24.292;2023-01-27T06:55:16;102373.81;;;0.48;100.00
57948;BME280;43754;56.992;24.292;2023-01-27T06:57:49;102382.28;;;0.55;100.00
57948;BME280;43754;56.992;24.292;2023-01-27T07:00:22;102378.66;;;0.57;100.00
57948;BME280;43754;56.992;24.292;2023-01-27T07:02:55;102400.75;;;0.55;100.00
57948;BME280;43754;56.992;24.292;2023-01-27T07:05:29;102401.47;;;0.58;100.00
57948;BME280;43754;56.992;24.292;2023-01-27T07:08:01;102410.75;;;0.48;100.00
57948;BME280;43754;56.992;24.292;2023-01-27T07:10:33;102410.91;;;0.45;100.00
57948;BME280;43754;56.992;24.292;2023-01-27T07:13:05;102401.91;;;0.49;100.00
57948;BME280;43754;56.992;24.292;2023-01-27T07:15:38;102401.59;;;0.55;100.00
57948;BME280;43754;56.992;24.292;2023-01-27T07:18:11;102409.28;;;0.60;100.00
57948;BME280;43754;56.992;24.292;2023-01-27T07:20:46;102417.22;;;0.60;100.00
57948;BME280;43754;56.992;24.292;2023-01-27T07:23:18;102417.00;;;0.64;100.00
57948;BME280;43754;56.992;24.292;2023-01-27T07:25:50;102414.34;;;0.64;100.00
57948;BME280;43754;56.992;24.292;2023-01-27T07:28:22;102414.06;;;0.70;100.00
57948;BME280;43754;56.992;24.292;2023-01-27T07:30:54;102417.56;;;0.71;100.00
57948;BME280;43754;56.992;24.292;2023-01-27T07:33:26;102418.53;;;0.68;100.00
57948;BME280;43754;56.992;24.292;2023-01-27T07:36:00;102435.66;;;0.78;100.00
57948;BME280;43754;56.992;24.292;2023-01-27T07:38:32;102434.84;;;0.76;100.00
57948;BME280;43754;56.992;24.292;2023-01-27T07:41:04;102442.72;;;0.78;100.00
57948;BME280;43754;56.992;24.292;2023-01-27T07:43:36;102445.03;;;0.84;100.00
57948;BME280;43754;56.992;24.292;2023-01-27T07:46:11;102450.47;;;0.81;100.00
57948;BME280;43754;56.992;24.292;2023-01-27T07:48:43;102455.22;;;0.91;100.00
57948;BME280;43754;56.992;24.292;2023-01-27T07:51:17;102440.22;;;0.92;100.00
57948;BME280;43754;56.992;24.292;2023-01-27T07:53:49;102455.59;;;0.84;100.00
57948;BME280;43754;56.992;24.292;2023-01-27T07:56:22;102461.03;;;0.81;100.00
57948;BME280;43754;56.992;24.292;2023-01-27T07:58:54;102458.22;;;0.84;100.00
57948;BME280;43754;56.992;24.292;2023-01-27T08:01:26;102463.81;;;0.78;100.00
57948;BME280;43754;56.992;24.292;2023-01-27T08:03:58;102474.00;;;0.85;100.00
57948;BME280;43754;56.992;24.292;2023-01-27T08:06:32;102479.34;;;0.84;100.00
57948;BME280;43754;56.992;24.292;2023-01-27T08:09:04;102478.19;;;0.89;100.00
57948;BME280;43754;56.992;24.292;2023-01-27T08:11:36;102483.31;;;0.92;100.00
57948;BME280;43754;56.992;24.292;2023-01-27T08:14:08;102483.31;;;0.92;100.00
57948;BME280;43754;56.992;24.292;2023-01-27T08:16:40;102499.78;;;0.98;100.00
57948;BME280;43754;56.992;24.292;2023-01-27T08:19:12;102497.47;;;0.91;100.00
57948;BME280;43754;56.992;24.292;2023-01-27T08:21:46;102491.09;;;0.96;100.00
57948;BME280;43754;56.992;24.292;2023-01-27T08:24:18;102482.38;;;0.93;100.00
57948;BME280;43754;56.992;24.292;2023-01-27T08:26:50;102490.63;;;1.05;100.00
57948;BME280;43754;56.992;24.292;2023-01-27T08:29:22;102486.59;;;1.15;100.00
57948;BME280;43754;56.992;24.292;2023-01-27T08:31:54;102495.56;;;1.12;100.00
57948;BME280;43754;56.992;24.292;2023-01-27T08:34:26;102496.25;;;1.16;100.00
57948;BME280;43754;56.992;24.292;2023-01-27T08:36:59;102503.09;;;1.20;100.00
57948;BME280;43754;56.992;24.292;2023-01-27T08:39:32;102506.94;;;1.13;100.00
57948;BME280;43754;56.992;24.292;2023-01-27T08:42:04;102504.47;;;1.10;100.00
57948;BME280;43754;56.992;24.292;2023-01-27T08:44:36;102520.09;;;1.14;100.00
57948;BME280;43754;56.992;24.292;2023-01-27T08:47:08;102511.00;;;1.20;100.00
57948;BME280;43754;56.992;24.292;2023-01-27T08:49:40;102511.88;;;1.20;100.00
57948;BME280;43754;56.992;24.292;2023-01-27T08:52:13;102526.84;;;1.20;100.00
57948;BME280;43754;56.992;24.292;2023-01-27T08:54:45;102524.13;;;1.04;100.00
57948;BME280;43754;56.992;24.292;2023-01-27T08:57:17;102517.16;;;0.84;100.00
57948;BME280;43754;56.992;24.292;2023-01-27T08:59:49;102523.06;;;0.89;100.00
57948;BME280;43754;56.992;24.292;2023-01-27T09:02:21;102530.16;;;1.06;100.00
57948;BME280;43754;56.992;24.292;2023-01-27T09:04:55;102519.66;;;1.05;100.00
57948;BME280;43754;56.992;24.292;2023-01-27T09:07:28;102522.56;;;1.17;100.00
57948;BME280;43754;56.992;24.292;2023-01-27T09:10:00;102533.25;;;1.33;100.00
57948;BME280;43754;56.992;24.292;2023-01-27T09:12:45;102519.25;;;1.31;100.00
57948;BME280;43754;56.992;24.292;2023-01-27T09:15:17;102524.53;;;1.48;100.00
57948;BME280;43754;56.992;24.292;2023-01-27T09:17:49;102512.88;;;1.52;100.00
57948;BME280;43754;56.992;24.292;2023-01-27T09:20:21;102516.66;;;1.64;100.00
57948;BME280;43754;56.992;24.292;2023-01-27T09:22:55;102521.72;;;1.51;100.00
57948;BME280;43754;56.992;24.292;2023-01-27T09:25:27;102525.44;;;1.64;100.00
57948;BME280;43754;56.992;24.292;2023-01-27T09:27:59;102523.25;;;1.72;100.00
57948;BME280;43754;56.992;24.292;2023-01-27T09:30:32;102521.53;;;1.89;100.00
57948;BME280;43754;56.992;24.292;2023-01-27T09:33:04;102518.88;;;1.89;100.00
57948;BME280;43754;56.992;24.292;2023-01-27T09:35:39;102536.47;;;1.72;100.00
57948;BME280;43754;56.992;24.292;2023-01-27T09:38:18;102526.22;;;1.83;100.00
57948;BME280;43754;56.992;24.292;2023-01-27T09:41:04;102527.66;;;1.89;100.00
57948;BME280;43754;56.992;24.292;2023-01-27T09:43:57;102529.16;;;1.95;100.00
57948;BME280;43754;56.992;24.292;2023-01-27T09:46:52;102526.06;;;1.87;100.00
57948;BME280;43754;56.992;24.292;2023-01-27T09:49:44;102524.81;;;1.76;100.00
57948;BME280;43754;56.992;24.292;2023-01-27T09:52:36;102529.25;;;1.76;100.00
57948;BME280;43754;56.992;24.292;2023-01-27T09:55:26;102534.94;;;1.68;100.00
57948;BME280;43754;56.992;24.292;2023-01-27T09:58:05;102536.81;;;1.66;100.00
57948;BME280;43754;56.992;24.292;2023-01-27T10:00:48;102530.19;;;1.75;100.00
57948;BME280;43754;56.992;24.292;2023-01-27T10:03:44;102536.47;;;1.72;100.00
57948;BME280;43754;56.992;24.292;2023-01-27T10:06:43;102550.78;;;1.68;100.00
57948;BME280;43754;56.992;24.292;2023-01-27T10:09:36;102547.00;;;1.57;100.00
57948;BME280;43754;56.992;24.292;2023-01-27T10:12:23;102555.16;;;1.52;100.00
57948;BME280;43754;56.992;24.292;2023-01-27T10:15:06;102553.53;;;1.50;100.00
57948;BME280;43754;56.992;24.292;2023-01-27T10:17:50;102551.75;;;1.50;100.00
57948;BME280;43754;56.992;24.292;2023-01-27T10:20:30;102548.38;;;1.64;100.00
57948;BME280;43754;56.992;24.292;2023-01-27T10:23:14;102546.75;;;1.78;100.00
57948;BME280;43754;56.992;24.292;2023-01-27T10:25:57;102557.16;;;1.81;100.00
57948;BME280;43754;56.992;24.292;2023-01-27T10:28:33;102563.75;;;2.07;100.00
57948;BME280;43754;56.992;24.292;2023-01-27T10:31:08;102556.38;;;2.29;100.00
57948;BME280;43754;56.992;24.292;2023-01-27T10:33:49;102549.03;;;2.35;100.00
57948;BME280;43754;56.992;24.292;2023-01-27T10:36:26;102561.69;;;2.29;100.00
57948;BME280;43754;56.992;24.292;2023-01-27T10:39:11;102562.34;;;2.33;100.00
57948;BME280;43754;56.992;24.292;2023-01-27T10:41:55;102565.97;;;2.15;100.00
57948;BME280;43754;56.992;24.292;2023-01-27T10:44:45;102567.09;;;1.94;100.00
57948;BME280;43754;56.992;24.292;2023-01-27T10:47:28;102568.38;;;1.87;100.00
57948;BME280;43754;56.992;24.292;2023-01-27T10:50:06;102579.69;;;1.71;100.00
57948;BME280;43754;56.992;24.292;2023-01-27T10:52:43;102572.25;;;1.79;100.00
57948;BME280;43754;56.992;24.292;2023-01-27T10:55:21;102571.41;;;1.96;100.00
57948;BME280;43754;56.992;24.292;2023-01-27T10:57:59;102569.09;;;2.06;100.00
57948;BME280;43754;56.992;24.292;2023-01-27T11:00:39;102565.59;;;2.05;100.00
57948;BME280;43754;56.992;24.292;2023-01-27T11:03:35;102570.22;;;2.17;100.00
57948;BME280;43754;56.992;24.292;2023-01-27T11:06:14;102572.28;;;2.12;100.00
57948;BME280;43754;56.992;24.292;2023-01-27T11:08:50;102574.09;;;2.12;100.00
57948;BME280;43754;56.992;24.292;2023-01-27T11:11:24;102572.00;;;1.84;100.00
57948;BME280;43754;56.992;24.292;2023-01-27T11:14:20;102571.25;;;1.82;100.00
57948;BME280;43754;56.992;24.292;2023-01-27T11:17:00;102570.63;;;1.77;100.00
57948;BME280;43754;56.992;24.292;2023-01-27T11:19:41;102570.09;;;1.88;100.00
57948;BME280;43754;56.992;24.292;2023-01-27T11:22:18;102577.44;;;1.98;100.00
57948;BME280;43754;56.992;24.292;2023-01-27T11:24:57;102580.47;;;2.08;100.00
57948;BME280;43754;56.992;24.292;2023-01-27T11:27:52;102577.91;;;2.06;100.00
57948;BME280;43754;56.992;24.292;2023-01-27T11:30:31;102572.81;;;2.19;100.00
57948;BME280;43754;56.992;24.292;2023-01-27T11:33:12;102577.03;;;2.06;100.00
57948;BME280;43754;56.992;24.292;2023-01-27T11:35:50;102568.09;;;2.08;100.00
57948;BME280;43754;56.992;24.292;2023-01-27T11:38:24;102567.50;;;1.86;100.00
57948;BME280;43754;56.992;24.292;2023-01-27T11:40:56;102569.97;;;1.89;100.00
57948;BME280;43754;56.992;24.292;2023-01-27T11:43:28;102567.09;;;1.94;100.00
57948;BME280;43754;56.992;24.292;2023-01-27T11:46:01;102568.81;;;1.95;100.00
57948;BME280;43754;56.992;24.292;2023-01-27T11:48:38;102568.78;;;2.12;100.00
57948;BME280;43754;56.992;24.292;2023-01-27T11:51:17;102571.88;;;2.20;100.00
57948;BME280;43754;56.992;24.292;2023-01-27T11:53:59;102572.19;;;2.14;100.00
57948;BME280;43754;56.992;24.292;2023-01-27T11:56:33;102567.56;;;2.02;100.00
57948;BME280;43754;56.992;24.292;2023-01-27T11:59:08;102571.06;;;2.02;100.00
57948;BME280;43754;56.992;24.292;2023-01-27T12:01:46;102559.75;;;1.83;100.00
57948;BME280;43754;56.992;24.292;2023-01-27T12:04:24;102560.31;;;1.88;100.00
57948;BME280;43754;56.992;24.292;2023-01-27T12:07:03;102562.44;;;1.99;100.00
57948;BME280;43754;56.992;24.292;2023-01-27T12:09:36;102553.25;;;1.89;100.00
57948;BME280;43754;56.992;24.292;2023-01-27T12:12:17;102546.75;;;1.78;100.00
57948;BME280;43754;56.992;24.292;2023-01-27T12:14:52;102548.16;;;1.68;100.00
57948;BME280;43754;56.992;24.292;2023-01-27T12:17:29;102540.22;;;1.68;100.00
57948;BME280;43754;56.992;24.292;2023-01-27T12:20:15;102546.13;;;1.73;100.00
57948;BME280;43754;56.992;24.292;2023-01-27T12:22:53;102549.88;;;1.69;100.00
57948;BME280;43754;56.992;24.292;2023-01-27T12:25:28;102553.59;;;1.65;100.00
57948;BME280;43754;56.992;24.292;2023-01-27T12:28:03;102547.97;;;1.71;100.00
57948;BME280;43754;56.992;24.292;2023-01-27T12:30:37;102548.75;;;1.91;100.00
57948;BME280;43754;56.992;24.292;2023-01-27T12:33:12;102544.59;;;2.02;100.00
57948;BME280;43754;56.992;24.292;2023-01-27T12:35:50;102542.81;;;2.03;100.00
57948;BME280;43754;56.992;24.292;2023-01-27T12:38:24;102548.53;;;1.95;100.00
57948;BME280;43754;56.992;24.292;2023-01-27T12:40:59;102543.53;;;1.89;100.00
57948;BME280;43754;56.992;24.292;2023-01-27T12:43:49;102554.22;;;1.70;100.00
57948;BME280;43754;56.992;24.292;2023-01-27T12:46:23;102561.38;;;1.68;100.00
57948;BME280;43754;56.992;24.292;2023-01-27T12:49:00;102560.66;;;1.48;100.00
57948;BME280;43754;56.992;24.292;2023-01-27T12:51:40;102557.63;;;1.21;100.00
57948;BME280;43754;56.992;24.292;2023-01-27T12:54:16;102566.53;;;1.18;100.00
57948;BME280;43754;56.992;24.292;2023-01-27T12:56:51;102563.84;;;1.20;100.00
57948;BME280;43754;56.992;24.292;2023-01-27T12:59:24;102570.25;;;1.14;100.00
57948;BME280;43754;56.992;24.292;2023-01-27T13:02:00;102573.91;;;1.12;100.00
57948;BME280;43754;56.992;24.292;2023-01-27T13:04:33;102572.97;;;1.13;100.00
57948;BME280;43754;56.992;24.292;2023-01-27T13:07:14;102573.09;;;1.28;100.00
57948;BME280;43754;56.992;24.292;2023-01-27T13:09:49;102575.75;;;1.46;100.00
57948;BME280;43754;56.992;24.292;2023-01-27T13:12:24;102573.50;;;1.55;100.00
57948;BME280;43754;56.992;24.292;2023-01-27T13:15:05;102568.38;;;1.69;100.00
57948;BME280;43754;56.992;24.292;2023-01-27T13:17:42;102575.75;;;1.80;100.00
57948;BME280;43754;56.992;24.292;2023-01-27T13:20:19;102572.78;;;1.86;100.00
57948;BME280;43754;56.992;24.292;2023-01-27T13:22:58;102571.25;;;1.82;100.00
57948;BME280;43754;56.992;24.292;2023-01-27T13:25:36;102574.13;;;1.77;100.00